createdAt,value
2022-11-21T00:01:27.155Z,46.40
2022-11-21T00:03:53.714Z,40.58
2022-11-21T00:06:20.498Z,43.13
2022-11-21T00:08:47.155Z,42.47
2022-11-21T00:11:13.786Z,36.55
2022-11-21T00:13:40.696Z,39.50
2022-11-21T00:16:09.573Z,41.47
2022-11-21T00:18:36.736Z,39.15
2022-11-21T00:21:15.173Z,37.25
2022-11-21T00:23:42.915Z,38.75
2022-11-21T00:26:11.521Z,34.35
2022-11-21T00:28:38.053Z,44.67
2022-11-21T00:31:05.384Z,86.45
2022-11-21T00:33:32.628Z,56.67
2022-11-21T00:35:59.073Z,43.58
2022-11-21T00:38:27.288Z,43.15
2022-11-21T00:40:53.697Z,39.28
2022-11-21T00:43:20.157Z,44.85
2022-11-21T00:45:46.593Z,44.30
2022-11-21T00:48:13.054Z,44.67
2022-11-21T00:50:39.700Z,47.97
2022-11-21T00:53:06.150Z,45.97
2022-11-21T00:55:32.652Z,42.50
2022-11-21T00:57:59.086Z,50.13
2022-11-21T01:00:25.505Z,43.42
2022-11-21T01:02:51.998Z,39.47
2022-11-21T01:05:18.474Z,42.45
2022-11-21T01:07:44.933Z,36.67
2022-11-21T01:10:11.439Z,34.67
2022-11-21T01:12:37.836Z,32.83
2022-11-21T01:15:04.619Z,37.17
2022-11-21T01:17:32.841Z,32.63
2022-11-21T01:19:59.657Z,34.05
2022-11-21T01:22:26.236Z,36.80
2022-11-21T01:24:52.632Z,33.83
2022-11-21T01:27:19.035Z,34.70
2022-11-21T01:29:45.469Z,28.80
2022-11-21T01:32:11.876Z,28.45
2022-11-21T01:34:38.294Z,36.22
2022-11-21T01:37:04.716Z,29.77
2022-11-21T01:39:31.121Z,27.52
2022-11-21T01:41:57.593Z,32.63
2022-11-21T01:44:26.960Z,31.67
2022-11-21T01:46:53.956Z,30.60
2022-11-21T01:49:25.478Z,28.65
2022-11-21T01:54:53.895Z,26.73
2022-11-21T01:57:23.297Z,29.25
2022-11-21T01:59:56.367Z,28.92
2022-11-21T02:02:27.773Z,31.13
2022-11-21T02:04:55.797Z,31.58
2022-11-21T02:07:24.544Z,32.28
2022-11-21T02:09:54.751Z,29.48
2022-11-21T02:12:26.998Z,32.30
2022-11-21T02:14:54.729Z,27.90
2022-11-21T02:17:21.221Z,30.00
2022-11-21T02:19:50.491Z,32.30
2022-11-21T02:22:23.410Z,77.50
2022-11-21T02:25:14.633Z,56.03
2022-11-21T02:27:41.425Z,46.85
2022-11-21T02:30:09.973Z,43.72
2022-11-21T02:32:47.711Z,37.35
2022-11-21T02:35:16.513Z,31.83
2022-11-21T02:37:46.029Z,33.03
2022-11-21T02:40:20.862Z,46.40
2022-11-21T02:43:01.058Z,46.33
2022-11-21T02:45:32.060Z,43.92
2022-11-21T02:48:03.694Z,49.65
2022-11-21T02:50:36.461Z,166.40
2022-11-21T02:53:04.864Z,110.85
2022-11-21T02:55:31.364Z,118.00
2022-11-21T02:58:01.727Z,92.70
2022-11-21T03:00:32.325Z,65.53
2022-11-21T03:02:58.837Z,83.45
2022-11-21T03:05:25.397Z,128.68
2022-11-21T03:07:51.867Z,83.53
2022-11-21T03:10:18.424Z,87.53
2022-11-21T03:12:44.880Z,67.63
2022-11-21T03:15:14.322Z,51.63
2022-11-21T03:17:41.429Z,64.82
2022-11-21T03:20:08.916Z,88.07
2022-11-21T03:22:35.564Z,181.77
2022-11-21T03:25:02.029Z,95.10
2022-11-21T03:27:28.472Z,82.93
2022-11-21T03:29:54.942Z,151.18
2022-11-21T03:32:21.348Z,115.75
2022-11-21T03:34:47.759Z,138.32
2022-11-21T03:37:14.204Z,110.38
2022-11-21T03:39:40.625Z,114.45
2022-11-21T03:42:07.056Z,86.80
2022-11-21T03:44:33.509Z,105.10
2022-11-21T03:46:59.951Z,120.15
2022-11-21T03:49:26.387Z,114.40
2022-11-21T03:51:52.849Z,78.10
2022-11-21T03:54:19.271Z,128.32
2022-11-21T03:56:45.761Z,70.43
2022-11-21T03:59:12.216Z,80.20
2022-11-21T04:01:38.731Z,64.15
2022-11-21T04:04:05.591Z,122.20
2022-11-21T04:06:32.321Z,97.53
2022-11-21T04:08:58.787Z,72.97
2022-11-21T04:11:25.299Z,146.40
2022-11-21T04:13:52.396Z,113.45
2022-11-21T04:16:19.340Z,73.70
2022-11-21T04:18:45.821Z,73.43
2022-11-21T04:21:12.227Z,84.13
2022-11-21T04:23:38.693Z,50.50
2022-11-21T04:26:05.124Z,38.88
2022-11-21T04:28:31.758Z,61.42
2022-11-21T04:31:10.823Z,39.55
2022-11-21T04:33:39.069Z,43.67
2022-11-21T04:36:09.156Z,48.70
2022-11-21T04:38:36.243Z,47.88
2022-11-21T04:41:02.716Z,53.15
2022-11-21T04:43:29.209Z,65.82
2022-11-21T04:45:55.623Z,74.68
2022-11-21T04:48:23.081Z,93.00
2022-11-21T04:50:49.498Z,46.15
2022-11-21T04:53:15.935Z,60.80
2022-11-21T04:55:42.392Z,88.13
2022-11-21T04:58:08.920Z,67.35
2022-11-21T05:00:35.462Z,66.45
2022-11-21T05:03:04.169Z,59.85
2022-11-21T05:05:30.679Z,33.97
2022-11-21T05:07:57.390Z,34.65
2022-11-21T05:10:23.933Z,46.50
2022-11-21T05:13:18.536Z,32.63
2022-11-21T05:15:45.766Z,30.85
2022-11-21T05:18:12.403Z,42.53
2022-11-21T05:20:38.899Z,38.72
2022-11-21T05:23:05.338Z,33.00
2022-11-21T05:25:31.857Z,27.15
2022-11-21T05:27:58.533Z,26.75
2022-11-21T05:30:25.119Z,29.58
2022-11-21T05:32:51.678Z,27.05
2022-11-21T05:35:18.090Z,25.55
2022-11-21T05:37:44.513Z,28.70
2022-11-21T05:40:11.395Z,67.65
2022-11-21T05:43:02.220Z,46.95
2022-11-21T05:45:28.641Z,40.13
2022-11-21T05:47:55.045Z,39.72
2022-11-21T05:50:21.495Z,37.35
2022-11-21T05:52:47.980Z,30.70
2022-11-21T05:55:14.607Z,30.75
2022-11-21T05:57:41.032Z,28.83
2022-11-21T06:00:08.210Z,29.77
2022-11-21T06:02:53.229Z,38.47
2022-11-21T06:05:20.007Z,29.08
2022-11-21T06:07:46.515Z,23.85
2022-11-21T06:10:13.000Z,24.23
2022-11-21T06:12:39.397Z,26.38
2022-11-21T06:15:06.239Z,22.10
2022-11-21T06:17:32.705Z,21.05
2022-11-21T06:19:59.152Z,24.27
2022-11-21T06:22:25.562Z,22.88
2022-11-21T06:24:51.992Z,23.38
2022-11-21T06:27:18.431Z,23.08
2022-11-21T06:29:44.905Z,23.13
2022-11-21T06:32:11.609Z,30.50
2022-11-21T06:34:38.114Z,25.30
2022-11-21T06:37:04.563Z,27.00
2022-11-21T06:39:30.981Z,25.13
2022-11-21T06:41:57.461Z,24.15
2022-11-21T06:44:23.958Z,23.85
2022-11-21T06:46:51.625Z,24.75
2022-11-21T06:49:18.479Z,24.92
2022-11-21T06:51:44.897Z,25.80
2022-11-21T06:54:15.237Z,23.33
2022-11-21T06:56:43.765Z,26.55
2022-11-21T06:59:11.214Z,26.08
2022-11-21T07:01:37.915Z,28.73
2022-11-21T07:04:04.632Z,31.65
2022-11-21T07:06:31.156Z,31.75
2022-11-21T07:09:30.947Z,26.33
2022-11-21T07:11:44.565Z,40.30
2022-11-21T07:14:11.036Z,38.28
2022-11-21T07:16:37.862Z,34.15
2022-11-21T07:19:04.304Z,25.90
2022-11-21T07:21:30.752Z,27.42
2022-11-21T07:23:57.158Z,30.02
2022-11-21T07:26:23.589Z,34.17
2022-11-21T07:28:50.030Z,31.17
2022-11-21T07:31:16.611Z,27.35
2022-11-21T07:33:47.439Z,26.30
2022-11-21T07:36:14.180Z,32.90
2022-11-21T07:38:41.435Z,25.42
2022-11-21T07:41:08.599Z,24.90
2022-11-21T07:43:35.116Z,29.50
2022-11-21T07:46:01.598Z,22.92
2022-11-21T07:48:28.036Z,26.00
2022-11-21T07:50:54.494Z,25.95
2022-11-21T07:53:21.024Z,28.20
2022-11-21T07:55:47.477Z,24.88
2022-11-21T07:58:16.206Z,25.60
2022-11-21T08:00:43.278Z,26.00
2022-11-21T08:03:12.104Z,25.27
2022-11-21T08:05:40.666Z,26.48
2022-11-21T08:08:07.583Z,30.55
2022-11-21T08:10:38.358Z,24.60
2022-11-21T08:13:04.961Z,27.73
2022-11-21T08:15:31.413Z,27.25
2022-11-21T08:17:57.840Z,29.88
2022-11-21T08:20:24.249Z,31.13
2022-11-21T08:22:50.745Z,25.38
2022-11-21T08:25:17.296Z,24.42
2022-11-21T08:27:43.803Z,32.33
2022-11-21T08:30:11.730Z,33.05
2022-11-21T08:32:38.415Z,28.65
2022-11-21T08:35:05.279Z,31.00
2022-11-21T08:37:31.757Z,25.42
2022-11-21T08:40:02.296Z,23.42
2022-11-21T08:42:28.771Z,56.72
2022-11-21T08:44:55.206Z,37.47
2022-11-21T08:47:21.906Z,54.22
2022-11-21T08:49:48.544Z,34.22
2022-11-21T08:52:17.241Z,50.88
2022-11-21T08:54:47.126Z,27.00
2022-11-21T08:57:13.612Z,28.73
2022-11-21T08:59:40.108Z,32.80
2022-11-21T09:02:07.215Z,25.20
2022-11-21T09:04:33.761Z,27.73
2022-11-21T09:07:00.775Z,25.67
2022-11-21T09:09:27.565Z,23.95
2022-11-21T09:11:54.052Z,24.25
2022-11-21T09:14:39.417Z,22.75
2022-11-21T09:17:24.130Z,27.13
2022-11-21T09:19:50.629Z,26.27
2022-11-21T09:22:17.169Z,25.48
2022-11-21T09:24:43.727Z,25.25
2022-11-21T09:27:10.164Z,21.67
2022-11-21T09:29:36.575Z,25.67
2022-11-21T09:32:03.056Z,28.02
2022-11-21T09:34:31.706Z,24.30
2022-11-21T09:36:58.373Z,24.75
2022-11-21T09:39:25.572Z,24.27
2022-11-21T09:42:10.495Z,23.70
2022-11-21T09:44:42.995Z,26.52
2022-11-21T09:47:23.827Z,24.27
2022-11-21T09:50:04.057Z,30.40
2022-11-21T09:52:44.511Z,24.00
2022-11-21T09:55:18.325Z,22.38
2022-11-21T09:57:47.689Z,24.10
2022-11-21T10:00:23.250Z,24.33
2022-11-21T10:02:51.600Z,23.95
2022-11-21T10:05:29.263Z,25.42
2022-11-21T10:08:03.013Z,23.02
2022-11-21T10:10:29.444Z,24.23
2022-11-21T10:13:24.131Z,22.52
2022-11-21T10:16:21.575Z,22.98
2022-11-21T10:19:07.044Z,26.65
2022-11-21T10:22:02.326Z,26.17
2022-11-21T10:24:34.924Z,22.70
2022-11-21T10:27:11.030Z,22.63
2022-11-21T10:29:48.252Z,23.13
2022-11-21T10:32:26.333Z,26.48
2022-11-21T10:34:57.922Z,24.50
2022-11-21T10:37:37.451Z,31.17
2022-11-21T10:40:22.607Z,25.85
2022-11-21T10:42:58.576Z,25.63
2022-11-21T10:45:25.189Z,26.05
2022-11-21T10:47:52.985Z,25.55
2022-11-21T10:50:31.326Z,24.20
2022-11-21T10:53:28.308Z,29.38
2022-11-21T10:56:02.156Z,32.92
2022-11-21T10:58:41.699Z,29.30
2022-11-21T11:01:19.791Z,41.80
2022-11-21T11:04:06.882Z,80.15
2022-11-21T11:06:33.168Z,43.38
2022-11-21T11:08:59.653Z,39.17
2022-11-21T11:11:26.462Z,30.73
2022-11-21T11:13:57.689Z,26.73
2022-11-21T11:16:24.708Z,35.13
2022-11-21T11:18:58.423Z,103.07
2022-11-21T11:21:26.101Z,63.92
2022-11-21T11:23:54.958Z,43.58
2022-11-21T11:26:21.780Z,40.15
2022-11-21T11:28:48.667Z,24.63
2022-11-21T11:31:15.622Z,26.48
2022-11-21T11:33:51.796Z,24.15
2022-11-21T11:36:36.880Z,26.73
2022-11-21T11:39:18.025Z,25.02
2022-11-21T11:42:21.802Z,23.55
2022-11-21T11:45:16.953Z,22.00
2022-11-21T11:47:54.641Z,25.40
2022-11-21T11:50:26.844Z,23.50
2022-11-21T11:53:22.380Z,23.25
2022-11-21T11:55:54.426Z,21.90
2022-11-21T11:58:33.836Z,21.33
2022-11-21T12:01:06.139Z,24.42
2022-11-21T12:04:16.187Z,25.33
2022-11-21T12:07:41.161Z,22.10
2022-11-21T12:09:34.946Z,28.25
2022-11-21T12:12:16.217Z,25.58
2022-11-21T12:15:16.181Z,21.10
2022-11-21T12:17:47.104Z,24.95
2022-11-21T12:20:39.945Z,24.48
2022-11-21T12:23:09.247Z,23.67
2022-11-21T12:25:47.394Z,22.42
2022-11-21T12:28:32.650Z,21.77
2022-11-21T12:31:09.913Z,20.40
2022-11-21T12:33:47.620Z,22.15
2022-11-21T12:36:24.337Z,23.88
2022-11-21T12:39:10.118Z,23.67
2022-11-21T12:41:57.978Z,29.48
2022-11-21T12:44:50.302Z,26.08
2022-11-21T12:47:28.856Z,23.38
2022-11-21T12:50:37.437Z,20.60
2022-11-21T12:53:51.613Z,22.50
2022-11-21T12:56:32.026Z,26.08
2022-11-21T12:59:00.517Z,21.23
2022-11-21T13:01:46.075Z,21.90
2022-11-21T13:04:18.235Z,21.92
2022-11-21T13:06:48.846Z,19.80
2022-11-21T13:09:20.388Z,22.15
2022-11-21T13:11:58.624Z,24.70
2022-11-21T13:14:31.561Z,25.48
2022-11-21T13:17:28.086Z,25.05
2022-11-21T13:20:02.240Z,26.42
2022-11-21T13:22:37.930Z,24.02
2022-11-21T13:25:19.251Z,24.95
2022-11-21T13:27:45.788Z,20.48
2022-11-21T13:30:12.214Z,26.48
2022-11-21T13:32:47.164Z,22.65
2022-11-21T13:35:16.532Z,26.15
2022-11-21T13:37:52.446Z,22.08
2022-11-21T13:40:28.012Z,21.65
2022-11-21T13:45:58.751Z,21.38
2022-11-21T13:48:37.115Z,24.77
2022-11-21T13:51:15.718Z,25.48
2022-11-21T13:54:05.432Z,55.33
2022-11-21T13:56:44.499Z,44.90
2022-11-21T13:59:29.337Z,26.80
2022-11-21T14:02:48.044Z,27.13
2022-11-21T14:05:37.728Z,25.85
2022-11-21T14:08:16.879Z,24.45
2022-11-21T14:10:45.858Z,29.58
2022-11-21T14:13:23.348Z,23.40
2022-11-21T14:16:01.527Z,30.30
2022-11-21T14:18:28.184Z,21.67
2022-11-21T14:20:58.420Z,24.90
2022-11-21T14:23:28.286Z,25.90
2022-11-21T14:26:11.865Z,25.92
2022-11-21T14:28:38.595Z,25.48
2022-11-21T14:31:10.404Z,23.17
2022-11-21T14:33:47.705Z,26.45
2022-11-21T14:36:18.706Z,26.83
2022-11-21T14:38:57.778Z,25.20
2022-11-21T14:41:31.247Z,25.58
2022-11-21T14:44:03.422Z,24.08
2022-11-21T14:46:38.319Z,24.38
2022-11-21T14:49:16.917Z,26.77
2022-11-21T14:51:45.233Z,24.20
2022-11-21T14:54:21.783Z,24.35
2022-11-21T14:56:56.319Z,26.60
2022-11-21T14:59:26.789Z,29.08
2022-11-21T15:02:02.806Z,30.67
2022-11-21T15:04:32.568Z,30.98
2022-11-21T15:06:59.496Z,27.25
2022-11-21T15:10:26.117Z,27.45
2022-11-21T15:12:18.953Z,27.58
2022-11-21T15:14:59.041Z,27.83
2022-11-21T15:17:27.038Z,22.92
2022-11-21T15:20:11.208Z,29.35
2022-11-21T15:22:41.237Z,23.67
2022-11-21T15:25:15.596Z,23.92
2022-11-21T15:27:42.724Z,23.90
2022-11-21T15:30:09.123Z,24.27
2022-11-21T15:33:01.498Z,23.70
2022-11-21T15:35:31.955Z,26.55
2022-11-21T15:37:58.703Z,25.30
2022-11-21T15:40:25.300Z,27.48
2022-11-21T15:42:51.729Z,29.23
2022-11-21T15:45:26.929Z,26.42
2022-11-21T15:47:53.700Z,22.48
2022-11-21T15:50:23.780Z,27.73
2022-11-21T15:52:51.900Z,25.45
2022-11-21T15:55:22.030Z,31.52
2022-11-21T15:57:48.677Z,33.17
2022-11-21T16:00:15.845Z,27.48
2022-11-21T16:02:42.271Z,35.90
2022-11-21T16:05:15.226Z,30.45
2022-11-21T16:07:42.361Z,29.70
2022-11-21T16:10:16.526Z,31.10
2022-11-21T16:12:47.078Z,26.95
2022-11-21T16:15:14.127Z,28.83
2022-11-21T16:17:41.590Z,36.83
2022-11-21T16:20:08.558Z,35.60
2022-11-21T16:22:35.001Z,34.75
2022-11-21T16:25:01.519Z,35.38
2022-11-21T16:27:28.037Z,35.80
2022-11-21T16:29:54.493Z,32.83
2022-11-21T16:32:20.925Z,33.78
2022-11-21T16:34:47.380Z,32.58
2022-11-21T16:37:14.380Z,40.97
2022-11-21T16:39:41.839Z,33.50
2022-11-21T16:42:10.274Z,36.15
2022-11-21T16:44:36.676Z,36.35
2022-11-21T16:47:08.018Z,37.53
2022-11-21T16:49:35.588Z,38.03
2022-11-21T16:52:02.408Z,40.35
2022-11-21T16:54:28.846Z,41.38
2022-11-21T16:56:55.264Z,37.00
2022-11-21T16:59:21.767Z,42.15
2022-11-21T17:01:48.223Z,38.05
2022-11-21T17:04:17.519Z,37.13
2022-11-21T17:06:44.723Z,36.88
2022-11-21T17:09:11.457Z,43.10
2022-11-21T17:11:37.947Z,42.58
2022-11-21T17:14:06.253Z,40.72
2022-11-21T17:16:34.470Z,45.50
2022-11-21T17:19:02.181Z,43.17
2022-11-21T17:21:30.386Z,53.00
2022-11-21T17:23:57.351Z,48.65
2022-11-21T17:26:26.563Z,45.13
2022-11-21T17:28:55.082Z,52.70
2022-11-21T17:31:22.656Z,50.55
2022-11-21T17:33:52.043Z,58.35
2022-11-21T17:36:24.556Z,56.08
2022-11-21T17:38:52.115Z,54.45
2022-11-21T17:41:20.708Z,59.63
2022-11-21T17:43:48.235Z,56.83
2022-11-21T17:46:17.371Z,57.83
2022-11-21T17:48:49.799Z,63.33
2022-11-21T17:51:25.587Z,55.45
2022-11-21T17:53:52.767Z,52.22
2022-11-21T17:56:21.664Z,63.25
2022-11-21T17:58:48.313Z,56.60
2022-11-21T18:01:21.936Z,50.47
2022-11-21T18:03:54.696Z,54.75
2022-11-21T18:06:21.264Z,46.92
2022-11-21T18:08:48.528Z,47.15
2022-11-21T18:11:18.391Z,44.22
2022-11-21T18:13:45.413Z,45.20
2022-11-21T18:16:15.264Z,43.58
2022-11-21T18:18:42.521Z,48.28
2022-11-21T18:21:20.972Z,41.90
2022-11-21T18:23:47.600Z,49.67
2022-11-21T18:26:20.528Z,41.20
2022-11-21T18:28:57.228Z,43.17
2022-11-21T18:31:36.047Z,39.05
2022-11-21T18:34:07.506Z,44.92
2022-11-21T18:39:07.313Z,50.60
2022-11-21T18:41:38.706Z,52.38
2022-11-21T18:44:06.450Z,58.13
2022-11-21T18:46:35.829Z,91.57
2022-11-21T18:49:05.957Z,82.30
2022-11-21T18:51:34.173Z,79.05
2022-11-21T18:54:07.337Z,68.30
2022-11-21T18:56:35.117Z,63.95
2022-11-21T18:59:03.290Z,60.88
2022-11-21T19:01:30.537Z,54.33
2022-11-21T19:03:57.475Z,58.22
2022-11-21T19:06:25.555Z,61.55
2022-11-21T19:08:54.159Z,60.05
2022-11-21T19:11:24.127Z,58.45
2022-11-21T19:13:51.217Z,62.90
2022-11-21T19:16:19.831Z,61.45
2022-11-21T19:19:05.402Z,61.47
2022-11-21T19:21:38.286Z,60.20
2022-11-21T19:24:06.790Z,62.20
2022-11-21T19:26:33.415Z,53.17
2022-11-21T19:28:59.843Z,62.97
2022-11-21T19:31:26.311Z,66.78
2022-11-21T19:33:52.906Z,57.25
2022-11-21T19:36:21.535Z,56.03
2022-11-21T19:38:50.964Z,57.22
2022-11-21T19:41:20.814Z,62.33
2022-11-21T19:43:49.811Z,71.00
2022-11-21T19:46:27.894Z,58.97
2022-11-21T19:48:56.116Z,64.63
2022-11-21T19:51:25.378Z,60.45
2022-11-21T19:53:51.831Z,63.63
2022-11-21T19:56:23.327Z,67.07
2022-11-21T20:01:28.277Z,60.25
2022-11-21T20:03:57.922Z,66.10
2022-11-21T20:06:26.632Z,63.72
2022-11-21T20:08:55.672Z,65.88
2022-11-21T20:11:23.619Z,67.63
2022-11-21T20:13:51.313Z,73.90
2022-11-21T20:16:35.120Z,66.93
2022-11-21T20:19:06.617Z,70.75
2022-11-21T20:23:59.559Z,71.63
2022-11-21T20:26:26.802Z,74.63
2022-11-21T20:28:54.200Z,67.38
2022-11-21T20:31:23.130Z,75.32
2022-11-21T20:33:51.733Z,75.70
2022-11-21T20:36:23.452Z,73.25
2022-11-21T20:38:51.060Z,69.68
2022-11-21T20:41:18.650Z,75.72
2022-11-21T20:44:26.752Z,66.82
2022-11-21T20:46:34.249Z,69.65
2022-11-21T20:49:01.132Z,77.40
2022-11-21T20:54:14.091Z,73.70
2022-11-21T20:56:44.200Z,69.25
2022-11-21T20:59:11.222Z,62.40
2022-11-21T21:01:37.705Z,75.95
2022-11-21T21:04:04.392Z,71.65
2022-11-21T21:06:30.814Z,68.03
2022-11-21T21:08:57.323Z,64.85
2022-11-21T21:11:50.404Z,63.38
2022-11-21T21:14:11.301Z,62.83
2022-11-21T21:16:37.686Z,63.17
2022-11-21T21:19:04.317Z,62.88
2022-11-21T21:21:30.915Z,55.00
2022-11-21T21:24:02.295Z,54.22
2022-11-21T21:26:34.501Z,55.95
2022-11-21T21:29:03.757Z,53.33
2022-11-21T21:31:30.873Z,54.63
2022-11-21T21:33:58.418Z,55.22
2022-11-21T21:36:26.199Z,54.28
2022-11-21T21:39:00.098Z,56.47
2022-11-21T21:41:28.899Z,54.28
2022-11-21T21:43:57.180Z,50.58
2022-11-21T21:46:27.971Z,52.53
2022-11-21T21:48:58.117Z,47.10
2022-11-21T21:51:27.298Z,48.40
2022-11-21T21:53:55.006Z,45.92
2022-11-21T21:56:23.825Z,42.95
2022-11-21T21:58:50.933Z,53.58
2022-11-21T22:01:20.165Z,50.10
2022-11-21T22:03:47.823Z,46.08
2022-11-21T22:06:17.312Z,45.17
2022-11-21T22:08:45.420Z,52.00
2022-11-21T22:11:16.877Z,46.17
2022-11-21T22:16:11.907Z,51.05
2022-11-21T22:18:38.848Z,48.65
2022-11-21T22:21:27.991Z,48.85
2022-11-21T22:24:24.984Z,46.13
2022-11-21T22:26:42.680Z,54.17
2022-11-21T22:29:09.123Z,54.33
2022-11-21T22:31:35.609Z,44.85
2022-11-21T22:34:02.123Z,54.03
2022-11-21T22:36:28.581Z,48.55
2022-11-21T22:38:56.108Z,49.58
2022-11-21T22:41:25.090Z,55.50
2022-11-21T22:43:56.494Z,48.30
2022-11-21T22:46:24.062Z,47.67
2022-11-21T22:48:50.888Z,51.83
2022-11-21T22:51:20.625Z,52.63
2022-11-21T22:53:48.079Z,52.03
2022-11-21T22:56:17.812Z,53.53
2022-11-21T22:58:45.767Z,54.13
2022-11-21T23:01:14.882Z,50.42
2022-11-21T23:03:42.500Z,50.60
2022-11-21T23:06:12.284Z,50.58
2022-11-21T23:08:39.855Z,53.88
2022-11-21T23:11:17.916Z,58.70
2022-11-21T23:13:47.234Z,49.25
2022-11-21T23:16:14.741Z,46.95
2022-11-21T23:18:41.591Z,48.25
2022-11-21T23:21:09.012Z,48.97
2022-11-21T23:23:36.129Z,49.20
2022-11-21T23:26:03.313Z,57.83
2022-11-21T23:28:29.948Z,49.13
2022-11-21T23:30:56.605Z,46.97
2022-11-21T23:33:23.327Z,53.22
2022-11-21T23:35:50.046Z,49.72
2022-11-21T23:38:17.636Z,51.75
2022-11-21T23:40:48.783Z,44.13
2022-11-21T23:43:16.348Z,51.40
2022-11-21T23:45:43.799Z,50.38
2022-11-21T23:48:10.211Z,52.88
2022-11-21T23:50:36.840Z,49.88
2022-11-21T23:53:03.379Z,46.92
2022-11-21T23:55:29.816Z,48.55
2022-11-21T23:57:56.275Z,48.65
